Stephen R Warden — WDC6523 — position and weather

sailwx.info

Track history (hours):
 
Tides and Currents Weather Stations Pressure Air Temp Water Temp Dewpoint Dewpoint Depression Visibility Wind Speed Wind Dir Waves Ship Positions

Stephen R Warden

Owner: American Commercial Lines LLC, Jeffersonvile, IN. More information available from US FCC via Universal Licensing System and Coast Guard Vessel Documentation Center.

Last reported at 2016-Aug-09 10:08 UTC. Time now 2016-Aug-27 01:15 UTC.
Position N 29°56' W 090°21'.
Warning: this ship's position is 17 days out of date.

Length 37 m; draft 3 m.

Type: Towing. MMSI: 367057460.

Date/timePositionNaut miles runAvg speedWind from/ knotsBaromVisibWave heightAir tempDewpointWater temp
2016-Aug-09 10:08N 29°56' W 090°21'1 0.0
2016-Aug-08 11:10N 29°56' W 090°21'15 1.8
2016-Aug-08 03:07N 30°02' W 090°37'  
2016-Aug-03 22:18N 29°57' W 090°13'2 3.1
2016-Aug-03 21:33N 29°56' W 090°11'2 2.4
2016-Aug-03 20:33N 29°56' W 090°08'4 3.6
2016-Aug-03 19:34N 29°55' W 090°04'3 3.2
2016-Aug-03 18:33N 29°57' W 090°01'1 0.5
2016-Aug-03 17:34N 29°56' W 090°01'0 0.0
2016-Aug-03 16:34N 29°56' W 090°01'0 0.0
2016-Aug-03 15:34N 29°56' W 090°01'0 0.0
2016-Aug-03 14:33N 29°56' W 090°01'0 0.0
2016-Aug-03 13:33N 29°56' W 090°01'0 0.0
2016-Aug-03 12:33N 29°56' W 090°01'0 0.0
2016-Aug-03 11:34N 29°56' W 090°01'0 0.0
2016-Aug-03 10:34N 29°56' W 090°01'0 0.4
2016-Aug-03 09:33N 29°56' W 090°00'4 4.0
2016-Aug-03 08:33N 29°55' W 089°56'0 0.1
2016-Aug-03 07:33N 29°55' W 089°56'0 0.0
2016-Aug-03 06:34N 29°55' W 089°56'0 0.2
2016-Aug-03 04:33N 29°55' W 089°55'3 3.4
2016-Aug-03 03:33N 29°52' W 089°55'4 4.0
2016-Aug-03 02:33N 29°50' W 089°59'1 0.4
2016-Aug-03 00:30N 29°50' W 089°60'6 6.3
2016-Aug-02 23:29N 29°55' W 089°55'7 8.0
2016-Aug-02 22:34N 29°57' W 090°03'5 5.1
2016-Aug-02 21:33N 29°56' W 090°09'3 2.7
2016-Aug-02 20:33N 29°56' W 090°12'0 0.1
2016-Aug-02 19:33N 29°56' W 090°12'  
2016-Jul-30 21:29N 29°55' W 090°13'2 0.2
2016-Jul-30 14:13N 29°56' W 090°11'0 0.1
2016-Jul-30 13:23N 29°56' W 090°11'3 3.4
2016-Jul-30 12:33N 29°55' W 090°08'5 5.0
2016-Jul-30 11:34N 29°57' W 090°03'6 5.8
2016-Jul-30 10:33N 29°55' W 089°57'  
Track history (hours):
 
Tides and Currents Weather Stations Pressure Air Temp Water Temp Dewpoint Dewpoint Depression Visibility Wind Speed Wind Dir Waves Ship Positions

Stephen R Warden

Owner: American Commercial Lines LLC, Jeffersonvile, IN. More information available from US FCC via Universal Licensing System and Coast Guard Vessel Documentation Center.

Last reported at 2016-Aug-09 10:08 UTC. Time now 2016-Aug-27 01:15 UTC.
Position N 29°56' W 090°21'.
Warning: this ship's position is 17 days out of date.

Length 37 m; draft 3 m.

Type: Towing. MMSI: 367057460.

Date/timePositionNaut miles runAvg speedWind from/ knotsBaromVisibWave heightAir tempDewpointWater temp
2016-Aug-09 10:08N 29°56' W 090°21'1 0.0
2016-Aug-08 11:10N 29°56' W 090°21'15 1.8
2016-Aug-08 03:07N 30°02' W 090°37'  
2016-Aug-03 22:18N 29°57' W 090°13'2 3.1
2016-Aug-03 21:33N 29°56' W 090°11'2 2.4
2016-Aug-03 20:33N 29°56' W 090°08'4 3.6
2016-Aug-03 19:34N 29°55' W 090°04'3 3.2
2016-Aug-03 18:33N 29°57' W 090°01'1 0.5
2016-Aug-03 17:34N 29°56' W 090°01'0 0.0
2016-Aug-03 16:34N 29°56' W 090°01'0 0.0
2016-Aug-03 15:34N 29°56' W 090°01'0 0.0
2016-Aug-03 14:33N 29°56' W 090°01'0 0.0
2016-Aug-03 13:33N 29°56' W 090°01'0 0.0
2016-Aug-03 12:33N 29°56' W 090°01'0 0.0
2016-Aug-03 11:34N 29°56' W 090°01'0 0.0
2016-Aug-03 10:34N 29°56' W 090°01'0 0.4
2016-Aug-03 09:33N 29°56' W 090°00'4 4.0
2016-Aug-03 08:33N 29°55' W 089°56'0 0.1
2016-Aug-03 07:33N 29°55' W 089°56'0 0.0
2016-Aug-03 06:34N 29°55' W 089°56'0 0.2
2016-Aug-03 04:33N 29°55' W 089°55'3 3.4
2016-Aug-03 03:33N 29°52' W 089°55'4 4.0
2016-Aug-03 02:33N 29°50' W 089°59'1 0.4
2016-Aug-03 00:30N 29°50' W 089°60'6 6.3
2016-Aug-02 23:29N 29°55' W 089°55'7 8.0
2016-Aug-02 22:34N 29°57' W 090°03'5 5.1
2016-Aug-02 21:33N 29°56' W 090°09'3 2.7
2016-Aug-02 20:33N 29°56' W 090°12'0 0.1
2016-Aug-02 19:33N 29°56' W 090°12'  
2016-Jul-30 21:29N 29°55' W 090°13'2 0.2
2016-Jul-30 14:13N 29°56' W 090°11'0 0.1
2016-Jul-30 13:23N 29°56' W 090°11'3 3.4
2016-Jul-30 12:33N 29°55' W 090°08'5 5.0
2016-Jul-30 11:34N 29°57' W 090°03'6 5.8
2016-Jul-30 10:33N 29°55' W 089°57'  

Dump ship's entire track history